createdAt,value
2022-10-29T00:00:54.872Z,32.73
2022-10-29T00:03:23.829Z,34.00
2022-10-29T00:06:01.409Z,32.87
2022-10-29T00:08:30.116Z,31.17
2022-10-29T00:11:07.163Z,31.87
2022-10-29T00:13:35.341Z,30.67
2022-10-29T00:16:07.276Z,32.27
2022-10-29T00:18:35.313Z,30.60
2022-10-29T00:21:06.595Z,31.03
2022-10-29T00:23:34.776Z,31.73
2022-10-29T00:26:03.645Z,34.63
2022-10-29T00:28:32.177Z,33.60
2022-10-29T00:31:04.387Z,33.33
2022-10-29T00:33:32.691Z,35.20
2022-10-29T00:36:02.439Z,39.07
2022-10-29T00:38:34.458Z,38.67
2022-10-29T00:41:02.753Z,41.23
2022-10-29T00:43:30.807Z,37.27
2022-10-29T00:46:02.820Z,39.83
2022-10-29T00:48:34.332Z,38.90
2022-10-29T00:51:03.220Z,38.17
2022-10-29T00:53:37.906Z,36.70
2022-10-29T00:56:06.614Z,37.60
2022-10-29T00:58:34.683Z,35.73
2022-10-29T01:01:03.319Z,35.80
2022-10-29T01:03:31.360Z,36.87
2022-10-29T01:05:59.531Z,36.83
2022-10-29T01:08:27.594Z,36.93
2022-10-29T01:11:05.590Z,37.43
2022-10-29T01:13:44.041Z,37.57
2022-10-29T01:16:20.494Z,36.43
2022-10-29T01:18:56.031Z,35.67
2022-10-29T01:21:44.650Z,37.47
2022-10-29T01:24:41.337Z,37.73
2022-10-29T01:28:00.332Z,36.87
2022-10-29T01:31:06.686Z,35.73
2022-10-29T01:33:44.442Z,35.60
2022-10-29T01:36:20.479Z,34.00
2022-10-29T01:38:54.515Z,35.33
2022-10-29T01:41:27.933Z,35.17
2022-10-29T01:44:00.186Z,34.27
2022-10-29T01:46:36.606Z,33.27
2022-10-29T01:49:11.020Z,34.87
2022-10-29T01:51:40.467Z,33.93
2022-10-29T01:54:12.041Z,32.03
2022-10-29T01:56:40.163Z,31.03
2022-10-29T01:59:22.839Z,31.60
2022-10-29T02:02:09.964Z,29.67
2022-10-29T02:04:58.968Z,31.27
2022-10-29T02:07:40.188Z,28.90
2022-10-29T02:10:19.243Z,29.90
2022-10-29T02:12:50.171Z,33.67
2022-10-29T02:15:21.774Z,31.73
2022-10-29T02:17:50.107Z,32.93
2022-10-29T02:20:19.705Z,34.17
2022-10-29T02:22:47.681Z,33.07
2022-10-29T02:25:15.689Z,33.87
2022-10-29T02:27:43.695Z,34.57
2022-10-29T02:30:12.229Z,29.80
2022-10-29T02:32:40.208Z,29.17
2022-10-29T02:35:08.891Z,26.67
2022-10-29T02:37:38.675Z,26.77
2022-10-29T02:40:07.730Z,28.57
2022-10-29T02:42:35.748Z,26.63
2022-10-29T02:45:03.930Z,28.20
2022-10-29T02:47:31.904Z,27.83
2022-10-29T02:49:59.876Z,28.10
2022-10-29T02:52:27.899Z,28.67
2022-10-29T02:54:57.255Z,29.27
2022-10-29T02:57:25.334Z,28.60
2022-10-29T02:59:53.306Z,27.73
2022-10-29T03:02:21.419Z,27.23
2022-10-29T03:04:49.482Z,25.07
2022-10-29T03:07:17.497Z,26.60
2022-10-29T03:09:45.462Z,25.70
2022-10-29T03:12:14.821Z,24.97
2022-10-29T03:14:42.780Z,25.77
2022-10-29T03:17:10.815Z,25.20
2022-10-29T03:19:38.828Z,25.30
2022-10-29T03:22:06.865Z,24.97
2022-10-29T03:24:34.834Z,22.00
2022-10-29T03:27:02.780Z,22.53
2022-10-29T03:29:32.275Z,21.23
2022-10-29T03:32:00.272Z,21.93
2022-10-29T03:34:28.231Z,19.90
2022-10-29T03:36:56.417Z,21.97
2022-10-29T03:39:24.991Z,21.20
2022-10-29T03:41:52.955Z,20.63
2022-10-29T03:44:20.944Z,21.10
2022-10-29T03:46:50.299Z,20.33
2022-10-29T03:49:18.274Z,19.27
2022-10-29T03:51:46.632Z,19.50
2022-10-29T03:54:14.619Z,21.20
2022-10-29T03:56:42.924Z,20.93
2022-10-29T03:59:11.636Z,21.97
2022-10-29T04:01:39.677Z,20.33
2022-10-29T04:04:10.351Z,19.17
2022-10-29T04:06:38.579Z,19.27
2022-10-29T04:09:06.583Z,21.47
2022-10-29T04:11:34.612Z,20.57
2022-10-29T04:14:02.582Z,19.93
2022-10-29T04:16:30.580Z,20.17
2022-10-29T04:18:59.078Z,19.77
2022-10-29T04:23:36.662Z,19.63
2022-10-29T04:29:52.633Z,18.00
2022-10-29T04:32:20.615Z,17.17
2022-10-29T04:34:48.595Z,16.30
2022-10-29T04:37:18.136Z,17.63
2022-10-29T04:39:46.145Z,18.30
2022-10-29T04:42:14.139Z,17.93
2022-10-29T04:44:42.153Z,17.67
2022-10-29T04:47:10.113Z,17.33
2022-10-29T04:49:38.111Z,16.90
2022-10-29T04:52:06.588Z,17.30
2022-10-29T04:54:35.932Z,15.90
2022-10-29T04:57:03.915Z,16.53
2022-10-29T04:59:31.890Z,17.33
2022-10-29T05:01:59.858Z,15.77
2022-10-29T05:04:29.427Z,18.20
2022-10-29T05:06:57.478Z,17.60
2022-10-29T05:09:25.504Z,17.30
2022-10-29T05:11:54.846Z,18.83
2022-10-29T05:14:23.062Z,15.57
2022-10-29T05:16:51.019Z,15.80
2022-10-29T05:19:18.998Z,14.87
2022-10-29T05:21:47.016Z,15.23
2022-10-29T05:24:15.179Z,16.83
2022-10-29T05:26:43.858Z,18.87
2022-10-29T05:29:13.441Z,16.10
2022-10-29T05:31:41.468Z,18.93
2022-10-29T05:34:09.451Z,18.50
2022-10-29T05:36:37.700Z,14.57
2022-10-29T05:39:05.695Z,12.80
2022-10-29T05:41:35.127Z,14.80
2022-10-29T05:44:03.131Z,12.23
2022-10-29T05:46:32.600Z,14.27
2022-10-29T05:49:00.602Z,13.93
2022-10-29T05:51:28.582Z,14.13
2022-10-29T05:53:56.542Z,15.03
2022-10-29T05:56:24.864Z,13.80
2022-10-29T05:58:53.744Z,13.40
2022-10-29T06:01:21.750Z,13.33
2022-10-29T06:06:24.538Z,13.40
2022-10-29T06:08:52.549Z,14.33
2022-10-29T06:11:20.604Z,13.80
2022-10-29T06:13:48.625Z,14.70
2022-10-29T06:16:16.609Z,13.10
2022-10-29T06:18:44.588Z,14.57
2022-10-29T06:21:14.196Z,14.60
2022-10-29T06:23:42.255Z,13.13
2022-10-29T06:26:10.259Z,13.33
2022-10-29T06:28:38.223Z,14.73
2022-10-29T06:31:06.465Z,13.73
2022-10-29T06:33:34.472Z,12.70
2022-10-29T06:36:02.660Z,13.53
2022-10-29T06:38:32.011Z,14.63
2022-10-29T06:41:00.221Z,15.27
2022-10-29T06:43:28.214Z,13.07
2022-10-29T06:45:56.194Z,12.00
2022-10-29T06:48:24.317Z,13.90
2022-10-29T06:50:52.628Z,13.03
2022-10-29T06:53:21.212Z,12.07
2022-10-29T06:55:50.581Z,11.27
2022-10-29T06:58:20.460Z,12.30
2022-10-29T07:00:49.564Z,11.77
2022-10-29T07:03:19.345Z,13.20
2022-10-29T07:05:47.789Z,10.77
2022-10-29T07:08:15.810Z,12.20
2022-10-29T07:10:43.824Z,13.00
2022-10-29T07:13:13.157Z,10.73
2022-10-29T07:15:41.143Z,12.80
2022-10-29T07:18:11.371Z,12.57
2022-10-29T07:20:41.595Z,9.60
2022-10-29T07:23:09.994Z,9.37
2022-10-29T07:25:38.920Z,9.80
2022-10-29T07:28:08.925Z,7.90
2022-10-29T07:30:38.562Z,8.30
2022-10-29T07:33:06.528Z,7.77
2022-10-29T07:35:35.047Z,9.37
2022-10-29T07:38:08.916Z,8.27
2022-10-29T07:40:39.333Z,8.80
2022-10-29T07:43:07.578Z,7.80
2022-10-29T07:45:35.571Z,7.80
2022-10-29T07:48:07.491Z,8.57
2022-10-29T07:50:36.044Z,7.87
2022-10-29T07:53:05.425Z,8.03
2022-10-29T07:55:33.791Z,10.30
2022-10-29T07:58:03.349Z,8.47
2022-10-29T08:00:32.018Z,9.20
2022-10-29T08:03:00.305Z,8.60
2022-10-29T08:05:31.967Z,10.27
2022-10-29T08:08:00.702Z,7.97
2022-10-29T08:10:30.544Z,7.23
2022-10-29T08:13:00.314Z,7.50
2022-10-29T08:15:30.553Z,7.03
2022-10-29T08:17:58.738Z,7.87
2022-10-29T08:20:28.784Z,9.30
2022-10-29T08:23:00.935Z,7.60
2022-10-29T08:25:29.356Z,8.13
2022-10-29T08:28:02.141Z,6.23
2022-10-29T08:30:30.435Z,7.57
2022-10-29T08:32:59.093Z,8.30
2022-10-29T08:35:28.194Z,8.60
2022-10-29T08:37:57.643Z,5.33
2022-10-29T08:40:31.039Z,6.60
2022-10-29T08:43:34.930Z,5.87
2022-10-29T08:46:03.642Z,7.43
2022-10-29T08:48:39.873Z,5.50
2022-10-29T08:51:14.596Z,5.53
2022-10-29T08:53:54.378Z,6.17
2022-10-29T08:56:37.600Z,6.47
2022-10-29T08:59:09.744Z,5.07
2022-10-29T09:01:38.814Z,6.40
2022-10-29T09:04:26.038Z,4.90
2022-10-29T09:07:12.387Z,4.40
2022-10-29T09:09:47.429Z,5.40
2022-10-29T09:12:47.455Z,6.07
2022-10-29T09:15:41.397Z,5.87
2022-10-29T09:18:40.504Z,6.77
2022-10-29T09:21:19.800Z,5.40
2022-10-29T09:24:03.715Z,5.47
2022-10-29T09:26:41.980Z,7.80
2022-10-29T09:29:36.395Z,4.87
2022-10-29T09:32:10.585Z,4.97
2022-10-29T09:34:44.303Z,5.33
2022-10-29T09:37:17.144Z,3.93
2022-10-29T09:39:47.854Z,5.53
2022-10-29T09:42:22.993Z,7.33
2022-10-29T09:44:55.727Z,6.93
2022-10-29T09:47:51.564Z,7.93
2022-10-29T09:50:27.961Z,6.43
2022-10-29T09:52:56.445Z,4.53
2022-10-29T09:55:28.117Z,5.80
2022-10-29T09:57:58.790Z,5.73
2022-10-29T10:00:28.698Z,5.20
2022-10-29T10:03:02.590Z,5.20
2022-10-29T10:05:32.703Z,8.33
2022-10-29T10:08:09.503Z,5.93
2022-10-29T10:10:49.758Z,5.07
2022-10-29T10:13:21.791Z,7.27
2022-10-29T10:15:56.176Z,4.43
2022-10-29T10:18:26.782Z,6.40
2022-10-29T10:21:03.619Z,4.90
2022-10-29T10:23:41.595Z,6.03
2022-10-29T10:26:33.258Z,6.50
2022-10-29T10:29:13.925Z,6.33
2022-10-29T10:31:42.974Z,5.90
2022-10-29T10:34:16.843Z,5.57
2022-10-29T10:36:48.356Z,6.90
2022-10-29T10:39:27.120Z,8.30
2022-10-29T10:41:57.316Z,5.50
2022-10-29T10:44:27.893Z,5.40
2022-10-29T10:46:58.931Z,4.63
2022-10-29T10:49:33.577Z,4.63
2022-10-29T10:52:04.866Z,5.10
2022-10-29T10:54:37.862Z,4.90
2022-10-29T10:57:20.618Z,6.23
2022-10-29T10:59:57.363Z,6.20
2022-10-29T11:02:34.653Z,6.03
2022-10-29T11:05:13.358Z,5.03
2022-10-29T11:07:47.111Z,6.87
2022-10-29T11:10:16.379Z,10.37
2022-10-29T11:12:48.223Z,6.50
2022-10-29T11:15:28.434Z,5.70
2022-10-29T11:18:01.575Z,6.70
2022-10-29T11:20:35.565Z,5.70
2022-10-29T11:23:17.714Z,6.30
2022-10-29T11:25:52.314Z,6.70
2022-10-29T11:28:27.184Z,5.40
2022-10-29T11:31:04.111Z,7.33
2022-10-29T11:33:38.776Z,8.47
2022-10-29T11:36:15.920Z,7.07
2022-10-29T11:38:49.091Z,9.43
2022-10-29T11:41:24.579Z,8.30
2022-10-29T11:43:52.812Z,9.87
2022-10-29T11:46:40.601Z,10.90
2022-10-29T11:49:22.131Z,8.93
2022-10-29T11:52:00.445Z,7.57
2022-10-29T11:54:43.477Z,6.80
2022-10-29T11:57:17.571Z,7.03
2022-10-29T12:00:08.088Z,7.23
2022-10-29T12:03:04.163Z,7.33
2022-10-29T12:05:41.227Z,6.30
2022-10-29T12:08:27.576Z,11.43
2022-10-29T12:11:04.684Z,36.87
2022-10-29T12:13:43.504Z,14.40
2022-10-29T12:16:21.031Z,6.37
2022-10-29T12:18:56.394Z,7.63
2022-10-29T12:21:35.169Z,6.37
2022-10-29T12:24:20.713Z,7.13
2022-10-29T12:26:55.089Z,8.53
2022-10-29T12:29:29.529Z,7.77
2022-10-29T12:32:04.344Z,6.43
2022-10-29T12:34:40.302Z,5.83
2022-10-29T12:37:14.781Z,8.67
2022-10-29T12:39:48.479Z,6.17
2022-10-29T12:42:22.824Z,6.03
2022-10-29T12:45:01.553Z,9.87
2022-10-29T12:47:34.768Z,7.10
2022-10-29T12:50:20.142Z,10.67
2022-10-29T12:52:56.137Z,8.67
2022-10-29T12:55:26.065Z,8.20
2022-10-29T12:57:54.096Z,8.07
2022-10-29T13:00:47.785Z,6.77
2022-10-29T13:03:48.887Z,10.37
2022-10-29T13:06:57.440Z,7.83
2022-10-29T13:09:26.613Z,7.23
2022-10-29T13:11:56.570Z,9.20
2022-10-29T13:14:28.958Z,7.70
2022-10-29T13:16:58.052Z,10.40
2022-10-29T13:19:40.724Z,11.60
2022-10-29T13:22:51.965Z,11.30
2022-10-29T13:25:50.464Z,9.00
2022-10-29T13:28:50.941Z,8.10
2022-10-29T13:31:46.639Z,9.63
2022-10-29T13:34:48.549Z,8.00
2022-10-29T13:37:38.369Z,5.97
2022-10-29T13:40:42.899Z,7.20
2022-10-29T13:43:17.319Z,6.97
2022-10-29T13:45:49.953Z,9.17
2022-10-29T13:48:26.436Z,8.07
2022-10-29T13:50:58.124Z,10.47
2022-10-29T13:53:36.569Z,6.83
2022-10-29T13:56:08.140Z,7.93
2022-10-29T13:58:38.631Z,6.53
2022-10-29T14:01:12.799Z,6.93
2022-10-29T14:03:55.562Z,9.00
2022-10-29T14:06:28.047Z,8.13
2022-10-29T14:09:02.541Z,8.73
2022-10-29T14:11:35.993Z,6.07
2022-10-29T14:14:05.948Z,8.00
2022-10-29T14:16:34.548Z,7.30
2022-10-29T14:19:15.006Z,8.83
2022-10-29T14:21:42.987Z,9.60
2022-10-29T14:24:17.227Z,8.47
2022-10-29T14:26:46.060Z,7.80
2022-10-29T14:29:15.742Z,9.03
2022-10-29T14:31:43.802Z,7.07
2022-10-29T14:34:26.749Z,7.20
2022-10-29T14:36:59.708Z,6.87
2022-10-29T14:39:48.037Z,9.40
2022-10-29T14:42:28.352Z,9.87
2022-10-29T14:44:58.979Z,11.33
2022-10-29T14:47:33.251Z,6.70
2022-10-29T14:50:03.656Z,7.10
2022-10-29T14:52:36.049Z,9.37
2022-10-29T14:55:22.587Z,10.97
2022-10-29T14:57:58.429Z,7.60
2022-10-29T15:00:30.949Z,7.93
2022-10-29T15:02:59.325Z,11.50
2022-10-29T15:05:29.491Z,10.60
2022-10-29T15:08:15.285Z,8.33
2022-10-29T15:10:50.368Z,7.07
2022-10-29T15:13:32.551Z,11.33
2022-10-29T15:16:03.181Z,8.07
2022-10-29T15:18:33.381Z,9.60
2022-10-29T15:21:01.821Z,10.83
2022-10-29T15:23:35.314Z,10.90
2022-10-29T15:26:06.703Z,8.50
2022-10-29T15:28:40.859Z,11.23
2022-10-29T15:31:17.698Z,10.43
2022-10-29T15:33:46.797Z,9.60
2022-10-29T15:36:14.778Z,11.70
2022-10-29T15:39:19.094Z,10.03
2022-10-29T15:41:50.351Z,10.27
2022-10-29T15:44:37.106Z,11.63
2022-10-29T15:47:21.258Z,12.03
2022-10-29T15:49:49.248Z,14.00
2022-10-29T15:52:19.818Z,10.70
2022-10-29T15:54:48.659Z,14.73
2022-10-29T15:57:18.794Z,14.23
2022-10-29T15:59:48.402Z,12.20
2022-10-29T16:02:18.387Z,15.03
2022-10-29T16:04:48.810Z,14.90
2022-10-29T16:07:17.923Z,11.57
2022-10-29T16:09:49.532Z,15.80
2022-10-29T16:12:19.127Z,16.80
2022-10-29T16:14:48.196Z,14.30
2022-10-29T16:17:18.129Z,13.17
2022-10-29T16:19:46.155Z,14.00
2022-10-29T16:22:16.061Z,16.13
2022-10-29T16:24:44.049Z,16.73
2022-10-29T16:27:17.193Z,14.83
2022-10-29T16:29:49.511Z,16.50
2022-10-29T16:32:19.052Z,17.90
2022-10-29T16:34:47.355Z,14.37
2022-10-29T16:37:17.093Z,16.20
2022-10-29T16:39:47.996Z,19.20
2022-10-29T16:42:30.803Z,18.93
2022-10-29T16:45:00.162Z,17.67
2022-10-29T16:47:28.509Z,19.10
2022-10-29T16:49:56.760Z,17.40
2022-10-29T16:52:28.874Z,17.83
2022-10-29T16:54:57.952Z,15.93
2022-10-29T16:57:25.938Z,16.63
2022-10-29T16:59:53.924Z,14.63
2022-10-29T17:02:23.266Z,15.87
2022-10-29T17:04:51.243Z,16.07
2022-10-29T17:07:19.324Z,14.00
2022-10-29T17:09:47.367Z,14.10
2022-10-29T17:12:15.871Z,16.77
2022-10-29T17:14:43.898Z,16.90
2022-10-29T17:17:11.885Z,17.07
2022-10-29T17:19:41.333Z,16.53
2022-10-29T17:22:11.375Z,16.33
2022-10-29T17:24:39.339Z,14.03
2022-10-29T17:27:07.354Z,17.13
2022-10-29T17:29:36.528Z,17.97
2022-10-29T17:32:05.420Z,16.50
2022-10-29T17:34:33.596Z,15.73
2022-10-29T17:37:03.036Z,14.37
2022-10-29T17:39:31.033Z,16.20
2022-10-29T17:41:59.276Z,16.23
2022-10-29T17:44:27.566Z,15.33
2022-10-29T17:46:55.943Z,17.10
2022-10-29T17:49:25.703Z,16.53
2022-10-29T17:51:54.887Z,18.87
2022-10-29T17:54:24.286Z,15.87
2022-10-29T17:56:52.292Z,16.30
2022-10-29T17:59:20.293Z,18.53
2022-10-29T18:01:48.600Z,17.57
2022-10-29T18:04:16.802Z,17.10
2022-10-29T18:06:45.048Z,19.17
2022-10-29T18:09:15.853Z,19.40
2022-10-29T18:11:49.748Z,18.23
2022-10-29T18:14:17.939Z,19.97
2022-10-29T18:16:46.487Z,20.70
2022-10-29T18:19:14.527Z,17.67
2022-10-29T18:21:45.411Z,16.97
2022-10-29T18:24:13.437Z,18.17
2022-10-29T18:26:43.752Z,18.83
2022-10-29T18:29:13.736Z,19.87
2022-10-29T18:31:44.982Z,17.07
2022-10-29T18:34:14.691Z,20.53
2022-10-29T18:36:43.248Z,20.07
2022-10-29T18:39:11.283Z,19.63
2022-10-29T18:41:39.549Z,19.07
2022-10-29T18:44:10.403Z,21.07
2022-10-29T18:46:39.743Z,21.77
2022-10-29T18:49:07.731Z,20.13
2022-10-29T18:51:35.697Z,21.53
2022-10-29T18:54:03.710Z,24.17
2022-10-29T18:56:32.299Z,21.23
2022-10-29T18:59:00.803Z,21.60
2022-10-29T19:01:31.977Z,21.27
2022-10-29T19:04:03.277Z,25.13
2022-10-29T19:06:33.284Z,20.17
2022-10-29T19:09:02.244Z,22.50
2022-10-29T19:11:30.611Z,21.30
2022-10-29T19:14:00.060Z,23.80
2022-10-29T19:16:30.549Z,20.67
2022-10-29T19:19:00.080Z,22.93
2022-10-29T19:21:29.851Z,22.37
2022-10-29T19:23:59.172Z,23.40
2022-10-29T19:26:28.988Z,22.23
2022-10-29T19:28:57.371Z,26.57
2022-10-29T19:31:27.211Z,24.27
2022-10-29T19:33:56.876Z,25.13
2022-10-29T19:36:25.955Z,24.27
2022-10-29T19:38:55.363Z,23.73
2022-10-29T19:41:23.675Z,25.43
2022-10-29T19:43:51.873Z,24.13
2022-10-29T19:46:23.968Z,24.93
2022-10-29T19:48:53.721Z,24.87
2022-10-29T19:51:22.939Z,22.50
2022-10-29T19:53:52.209Z,22.40
2022-10-29T19:56:22.655Z,25.27
2022-10-29T19:58:50.667Z,26.03
2022-10-29T20:01:19.716Z,21.00
2022-10-29T20:03:48.608Z,24.80
2022-10-29T20:06:17.830Z,22.90
2022-10-29T20:08:48.436Z,22.60
2022-10-29T20:11:16.687Z,22.57
2022-10-29T20:13:46.576Z,22.53
2022-10-29T20:16:17.986Z,26.50
2022-10-29T20:18:46.335Z,24.23
2022-10-29T20:21:14.681Z,25.43
2022-10-29T20:23:43.172Z,24.20
2022-10-29T20:26:11.232Z,23.80
2022-10-29T20:28:39.326Z,22.70
2022-10-29T20:31:29.725Z,22.00
2022-10-29T20:34:00.514Z,25.53
2022-10-29T20:36:30.633Z,20.63
2022-10-29T20:38:59.041Z,22.13
2022-10-29T20:41:28.589Z,24.53
2022-10-29T20:43:58.105Z,20.07
2022-10-29T20:46:29.935Z,21.20
2022-10-29T20:48:58.210Z,21.40
2022-10-29T20:51:27.119Z,21.17
2022-10-29T20:53:56.014Z,21.10
2022-10-29T20:56:26.636Z,22.80
2022-10-29T20:58:55.124Z,23.53
2022-10-29T21:01:24.318Z,24.60
2022-10-29T21:03:56.029Z,22.80
2022-10-29T21:06:24.151Z,21.33
2022-10-29T21:08:53.327Z,21.83
2022-10-29T21:11:22.660Z,22.90
2022-10-29T21:13:51.283Z,23.17
2022-10-29T21:16:21.077Z,23.47
2022-10-29T21:18:51.171Z,24.50
2022-10-29T21:21:21.047Z,21.83
2022-10-29T21:23:49.080Z,22.57
2022-10-29T21:26:18.603Z,22.77
2022-10-29T21:28:47.351Z,22.80
2022-10-29T21:31:15.415Z,21.73
2022-10-29T21:33:43.852Z,24.47
2022-10-29T21:36:13.991Z,22.97
2022-10-29T21:38:43.533Z,25.20
2022-10-29T21:41:11.515Z,21.80
2022-10-29T21:43:39.629Z,20.20
2022-10-29T21:46:08.612Z,19.50
2022-10-29T21:48:37.063Z,22.33
2022-10-29T21:51:07.503Z,22.27
2022-10-29T21:53:35.749Z,20.03
2022-10-29T21:56:09.420Z,20.83
2022-10-29T21:58:37.435Z,19.03
2022-10-29T22:01:10.282Z,20.50
2022-10-29T22:03:41.715Z,20.67
2022-10-29T22:06:12.663Z,22.03
2022-10-29T22:08:41.058Z,25.23
2022-10-29T22:11:11.207Z,19.33
2022-10-29T22:13:39.821Z,19.90
2022-10-29T22:16:09.350Z,19.00
2022-10-29T22:18:38.185Z,19.40
2022-10-29T22:21:08.915Z,21.77
2022-10-29T22:23:38.213Z,19.13
2022-10-29T22:26:06.471Z,20.47
2022-10-29T22:28:35.867Z,22.13
2022-10-29T22:31:05.469Z,18.97
2022-10-29T22:33:34.274Z,18.80
2022-10-29T22:36:07.573Z,19.87
2022-10-29T22:38:35.847Z,20.00
2022-10-29T22:41:08.235Z,20.27
2022-10-29T22:43:37.863Z,20.00
2022-10-29T22:46:07.003Z,21.13
2022-10-29T22:48:35.190Z,21.00
2022-10-29T22:51:04.962Z,20.47
2022-10-29T22:53:33.552Z,21.57
2022-10-29T22:56:02.029Z,22.77
2022-10-29T22:58:30.286Z,22.33
2022-10-29T23:01:08.100Z,24.37
2022-10-29T23:03:36.218Z,23.20
2022-10-29T23:06:06.594Z,23.60
2022-10-29T23:08:35.275Z,24.97
2022-10-29T23:11:06.380Z,24.67
2022-10-29T23:13:34.984Z,27.33
2022-10-29T23:16:03.356Z,25.00
2022-10-29T23:18:32.732Z,29.97
2022-10-29T23:21:01.270Z,24.17
2022-10-29T23:23:29.712Z,26.90
2022-10-29T23:26:01.492Z,28.53
2022-10-29T23:28:30.333Z,28.47
2022-10-29T23:30:59.554Z,28.23
2022-10-29T23:33:27.787Z,28.90
2022-10-29T23:35:57.406Z,27.57
2022-10-29T23:38:25.365Z,27.00
2022-10-29T23:40:53.331Z,28.27
2022-10-29T23:43:21.333Z,29.87
2022-10-29T23:45:49.352Z,25.57
2022-10-29T23:48:18.748Z,28.03
2022-10-29T23:50:47.551Z,27.27
2022-10-29T23:53:17.386Z,25.57
2022-10-29T23:55:46.318Z,29.07
2022-10-29T23:58:15.132Z,26.00
